createdAt,value
2022-08-26T00:02:23.234Z,78.71
2022-08-26T00:07:44.047Z,78.71
2022-08-26T00:13:05.468Z,78.90
2022-08-26T00:18:27.337Z,78.97
2022-08-26T00:23:51.462Z,78.98
2022-08-26T00:29:12.616Z,79.28
2022-08-26T00:34:34.034Z,79.46
2022-08-26T00:39:54.787Z,79.49
2022-08-26T00:45:16.167Z,79.70
2022-08-26T00:50:42.458Z,79.74
2022-08-26T00:56:08.294Z,79.73
2022-08-26T01:01:29.074Z,79.65
2022-08-26T01:06:53.671Z,79.87
2022-08-26T01:12:14.796Z,80.21
2022-08-26T01:17:37.603Z,80.23
2022-08-26T01:23:03.579Z,80.23
2022-08-26T01:28:28.187Z,80.28
2022-08-26T01:33:59.408Z,80.44
2022-08-26T01:39:21.049Z,80.62
2022-08-26T01:44:47.787Z,80.69
2022-08-26T01:50:20.098Z,80.61
2022-08-26T01:55:52.997Z,80.73
2022-08-26T02:01:14.343Z,80.98
2022-08-26T02:06:38.930Z,81.13
2022-08-26T02:12:01.744Z,81.16
2022-08-26T02:17:29.051Z,81.49
2022-08-26T02:22:49.907Z,81.60
2022-08-26T02:28:12.556Z,81.70
2022-08-26T02:33:33.199Z,81.76
2022-08-26T02:38:55.769Z,81.75
2022-08-26T02:44:16.297Z,82.15
2022-08-26T02:49:37.766Z,81.81
2022-08-26T02:54:58.622Z,82.34
2022-08-26T03:00:20.307Z,82.39
2022-08-26T03:05:42.474Z,82.47
2022-08-26T03:11:02.995Z,82.61
2022-08-26T03:16:23.688Z,82.79
2022-08-26T03:21:44.647Z,82.89
2022-08-26T03:27:07.811Z,83.13
2022-08-26T03:32:28.341Z,83.04
2022-08-26T03:37:49.179Z,83.18
2022-08-26T03:43:10.678Z,83.46
2022-08-26T03:48:31.435Z,83.52
2022-08-26T03:53:52.253Z,83.52
2022-08-26T03:59:12.584Z,83.66
2022-08-26T04:04:34.295Z,83.61
2022-08-26T04:09:58.329Z,83.83
2022-08-26T04:15:19.264Z,83.90
2022-08-26T04:20:39.729Z,83.77
2022-08-26T04:26:01.432Z,83.59
2022-08-26T04:31:22.763Z,83.76
2022-08-26T04:36:44.571Z,83.59
2022-08-26T04:42:55.084Z,84.12
2022-08-26T04:48:16.922Z,84.00
2022-08-26T04:53:39.181Z,84.17
2022-08-26T04:59:00.510Z,84.12
2022-08-26T05:04:22.011Z,84.11
2022-08-26T05:09:42.664Z,84.38
2022-08-26T05:15:03.327Z,84.32
2022-08-26T05:20:25.794Z,84.45
2022-08-26T05:25:48.017Z,84.37
2022-08-26T05:31:23.307Z,84.24
2022-08-26T05:36:44.327Z,84.36
2022-08-26T05:42:05.703Z,83.95
2022-08-26T05:47:26.440Z,83.90
2022-08-26T05:52:49.795Z,83.85
2022-08-26T05:58:11.748Z,83.69
2022-08-26T06:03:37.325Z,83.60
2022-08-26T06:09:00.481Z,83.20
2022-08-26T06:14:21.497Z,82.96
2022-08-26T06:19:42.103Z,82.70
2022-08-26T06:25:21.414Z,82.79
2022-08-26T06:30:43.183Z,82.42
2022-08-26T06:36:04.100Z,81.71
2022-08-26T06:41:25.697Z,81.60
2022-08-26T06:46:46.431Z,81.59
2022-08-26T06:52:11.700Z,80.78
2022-08-26T06:57:32.927Z,80.51
2022-08-26T07:02:55.813Z,80.13
2022-08-26T07:08:16.719Z,79.58
2022-08-26T07:13:38.583Z,78.96
2022-08-26T07:18:59.290Z,78.58
2022-08-26T07:24:21.609Z,77.73
2022-08-26T07:29:43.689Z,77.51
2022-08-26T07:35:06.091Z,77.27
2022-08-26T07:40:27.280Z,75.48
2022-08-26T07:45:48.093Z,75.42
2022-08-26T07:51:08.615Z,74.89
2022-08-26T07:56:29.406Z,73.93
2022-08-26T08:01:50.373Z,73.10
2022-08-26T08:07:11.971Z,72.94
2022-08-26T08:12:32.888Z,72.19
2022-08-26T08:17:58.880Z,71.00
2022-08-26T08:23:21.301Z,69.66
2022-08-26T08:28:41.808Z,68.76
2022-08-26T08:34:02.274Z,68.30
2022-08-26T08:39:23.184Z,66.98
2022-08-26T08:44:52.202Z,65.08
2022-08-26T08:50:34.105Z,64.76
2022-08-26T08:56:08.042Z,63.24
2022-08-26T09:01:42.143Z,62.51
2022-08-26T09:07:03.042Z,63.03
2022-08-26T09:12:29.434Z,60.45
2022-08-26T09:18:10.798Z,58.23
2022-08-26T09:23:35.907Z,56.24
2022-08-26T09:29:02.691Z,55.59
2022-08-26T09:34:26.401Z,51.91
2022-08-26T09:39:47.017Z,50.53
2022-08-26T09:45:10.517Z,48.17
2022-08-26T09:51:00.628Z,47.25
2022-08-26T09:56:21.971Z,47.08
2022-08-26T10:01:44.956Z,47.55
2022-08-26T10:07:09.709Z,47.28
2022-08-26T10:12:34.548Z,44.77
2022-08-26T10:18:17.741Z,45.06
2022-08-26T10:23:43.341Z,43.95
2022-08-26T10:29:15.598Z,45.72
2022-08-26T10:34:36.028Z,51.33
2022-08-26T10:40:08.222Z,49.30
2022-08-26T10:45:46.599Z,48.34
2022-08-26T10:51:08.756Z,51.59
2022-08-26T10:56:48.308Z,54.30
2022-08-26T11:02:15.314Z,55.95
2022-08-26T11:07:46.031Z,56.23
2022-08-26T11:13:07.358Z,56.23
2022-08-26T11:18:41.370Z,56.02
2022-08-26T11:24:01.703Z,55.10
2022-08-26T11:30:00.461Z,55.71
2022-08-26T11:35:21.415Z,57.76
2022-08-26T11:40:42.274Z,60.14
2022-08-26T11:46:09.223Z,59.58
2022-08-26T11:51:31.562Z,59.35
2022-08-26T11:56:53.254Z,56.94
2022-08-26T12:02:17.833Z,48.77
2022-08-26T12:07:38.920Z,48.86
2022-08-26T12:13:06.170Z,52.48
2022-08-26T12:18:33.873Z,51.41
2022-08-26T12:23:57.041Z,50.85
2022-08-26T12:29:27.340Z,51.65
2022-08-26T12:34:48.976Z,53.39
2022-08-26T12:40:31.260Z,53.43
2022-08-26T12:45:58.388Z,56.73
2022-08-26T12:51:24.398Z,60.67
2022-08-26T12:56:44.874Z,63.43
2022-08-26T13:02:05.591Z,65.68
2022-08-26T13:07:27.008Z,68.05
2022-08-26T13:12:47.590Z,70.57
2022-08-26T13:18:08.440Z,71.86
2022-08-26T13:23:28.967Z,70.13
2022-08-26T13:29:02.130Z,69.77
2022-08-26T13:34:24.008Z,69.59
2022-08-26T13:39:44.951Z,68.58
2022-08-26T13:45:06.451Z,66.37
2022-08-26T13:50:27.714Z,57.99
2022-08-26T13:55:49.140Z,58.89
2022-08-26T14:01:09.607Z,62.59
2022-08-26T14:06:30.524Z,65.20
2022-08-26T14:11:54.714Z,66.24
2022-08-26T14:17:21.036Z,66.88
2022-08-26T14:23:03.667Z,68.12
2022-08-26T14:33:51.489Z,69.23
2022-08-26T14:39:13.387Z,69.42
2022-08-26T14:44:34.405Z,69.26
2022-08-26T14:49:54.678Z,70.12
2022-08-26T14:55:15.232Z,71.71
2022-08-26T15:00:37.017Z,72.31
2022-08-26T15:05:57.851Z,72.25
2022-08-26T15:11:18.404Z,71.78
2022-08-26T15:16:39.394Z,71.57
2022-08-26T15:21:59.923Z,71.89
2022-08-26T15:27:20.644Z,71.64
2022-08-26T15:32:41.383Z,72.65
2022-08-26T15:38:01.927Z,73.16
2022-08-26T15:43:28.779Z,73.48
2022-08-26T15:48:50.015Z,73.75
2022-08-26T15:54:10.738Z,74.11
2022-08-26T15:59:31.657Z,74.09
2022-08-26T16:04:52.093Z,74.59
2022-08-26T16:10:15.287Z,74.71
2022-08-26T16:15:36.494Z,74.39
2022-08-26T16:21:12.434Z,74.77
2022-08-26T16:26:37.574Z,74.82
2022-08-26T16:31:58.273Z,74.88
2022-08-26T16:37:19.552Z,75.06
2022-08-26T16:42:40.235Z,75.29
2022-08-26T16:48:00.563Z,75.27
2022-08-26T16:53:21.408Z,75.43
2022-08-26T16:58:42.288Z,75.57
2022-08-26T17:04:03.020Z,75.94
2022-08-26T17:09:24.603Z,75.95
2022-08-26T17:14:45.836Z,76.14
2022-08-26T17:20:10.420Z,75.92
2022-08-26T17:25:31.927Z,76.07
2022-08-26T17:30:52.552Z,76.52
2022-08-26T17:36:13.808Z,76.67
2022-08-26T17:41:34.498Z,76.94
2022-08-26T17:46:55.308Z,76.84
2022-08-26T17:52:15.839Z,77.07
2022-08-26T17:57:40.811Z,76.87
2022-08-26T18:03:03.875Z,77.03
2022-08-26T18:08:24.303Z,77.27
2022-08-26T18:13:47.490Z,77.47
2022-08-26T18:19:08.683Z,77.60
2022-08-26T18:24:32.065Z,77.96
2022-08-26T18:29:52.624Z,78.23
2022-08-26T18:35:13.825Z,78.28
2022-08-26T18:40:37.488Z,78.38
2022-08-26T18:46:06.880Z,78.50
2022-08-26T18:51:30.004Z,78.70
2022-08-26T18:56:50.735Z,78.64
2022-08-26T19:02:11.832Z,78.73
2022-08-26T19:07:34.610Z,78.69
2022-08-26T19:13:00.669Z,78.84
2022-08-26T19:18:22.971Z,78.76
2022-08-26T19:23:43.495Z,78.83
2022-08-26T19:29:04.266Z,78.81
2022-08-26T19:34:25.554Z,78.93
2022-08-26T19:39:49.953Z,78.82
2022-08-26T19:45:24.853Z,78.64
2022-08-26T19:50:46.584Z,78.61
2022-08-26T19:56:07.131Z,78.67
2022-08-26T20:01:28.257Z,78.85
2022-08-26T20:06:48.534Z,78.86
2022-08-26T20:12:17.416Z,78.90
2022-08-26T20:17:38.897Z,79.10
2022-08-26T20:22:59.672Z,79.09
2022-08-26T20:28:20.097Z,79.18
2022-08-26T20:33:46.274Z,79.33
2022-08-26T20:39:07.872Z,79.11
2022-08-26T20:44:28.579Z,78.93
2022-08-26T20:49:49.035Z,79.11
2022-08-26T20:55:13.622Z,79.02
2022-08-26T21:00:34.815Z,79.06
2022-08-26T21:05:55.614Z,79.24
2022-08-26T21:11:18.009Z,79.23
2022-08-26T21:16:40.627Z,79.14
2022-08-26T21:22:01.017Z,79.23
2022-08-26T21:27:26.090Z,78.75
2022-08-26T21:32:46.977Z,79.03
2022-08-26T21:38:07.526Z,78.85
2022-08-26T21:43:35.138Z,78.99
2022-08-26T21:49:01.212Z,79.00
2022-08-26T21:54:21.960Z,78.69
2022-08-26T21:59:43.386Z,78.63
2022-08-26T22:05:05.019Z,78.56
2022-08-26T22:10:25.679Z,78.59
2022-08-26T22:15:47.794Z,78.45
2022-08-26T22:21:12.276Z,78.54
2022-08-26T22:26:33.680Z,78.28
2022-08-26T22:31:54.357Z,78.37
2022-08-26T22:37:14.910Z,78.15
2022-08-26T22:42:35.536Z,78.03
2022-08-26T22:47:56.931Z,77.67
2022-08-26T22:53:18.393Z,77.75
2022-08-26T22:58:39.329Z,77.65
2022-08-26T23:03:59.948Z,77.79
2022-08-26T23:09:20.393Z,77.39
2022-08-26T23:14:43.846Z,77.15
2022-08-26T23:20:08.781Z,76.98
2022-08-26T23:25:30.987Z,77.14
2022-08-26T23:30:53.582Z,76.83
2022-08-26T23:36:17.593Z,76.96
2022-08-26T23:41:39.055Z,76.65
2022-08-26T23:46:59.706Z,76.70
2022-08-26T23:52:38.852Z,76.67
2022-08-26T23:57:59.181Z,76.55
